Wyocena, Wisconsin
Current Conditions -  °F | °C
As of 12:55 PM on Friday 31 Oct 2014 (Local Time) from KDLL Reporting Station
Overcast Overcast  
Wind Chill: 27°   Ceiling: 4500
Heat Index: 37°   Visibility: 10mi
Dew Point: 19°   Wind: 18mph
Humidity: 48%   Direction: 350°N
Pressure: 30.37"   Gusts: 25mph
Location:  43.5°N, 89.31°W
Report Text: KDLL 311755Z AUTO 35016G22KT 10SM OVC045 03/M07 A3037 RMK AO2 T00261074 10030 21002
Loading
Personal Weather Stations






























Interactive Weather Map
Tropical Storm Tracking
New forecast layout! Learn more

10-Day Weather Forecast

Advertisements
Track Severe Weather on mobile